createdAt,value
2023-05-23T00:03:42.396Z,0
2023-05-23T00:10:02.350Z,0
2023-05-23T00:16:25.466Z,0
2023-05-23T00:22:45.371Z,0
2023-05-23T00:29:08.302Z,0
2023-05-23T00:35:28.476Z,0
2023-05-23T00:41:52.563Z,0
2023-05-23T00:48:11.327Z,0
2023-05-23T00:54:34.575Z,0
2023-05-23T01:00:54.324Z,0
2023-05-23T01:07:17.382Z,0
2023-05-23T01:13:37.469Z,0
2023-05-23T01:20:00.368Z,0
2023-05-23T01:26:20.374Z,0
2023-05-23T01:32:43.617Z,0
2023-05-23T01:39:03.325Z,0
2023-05-23T01:45:26.453Z,0
2023-05-23T01:51:46.480Z,0
2023-05-23T01:58:09.400Z,0
2023-05-23T02:04:29.378Z,0
2023-05-23T02:10:52.524Z,0
2023-05-23T02:17:12.379Z,0
2023-05-23T02:23:35.358Z,0
2023-05-23T02:29:55.474Z,0
2023-05-23T02:36:18.395Z,0
2023-05-23T02:42:38.315Z,0
2023-05-23T02:49:01.500Z,0
2023-05-23T02:55:21.326Z,0
2023-05-23T03:01:44.446Z,0
2023-05-23T03:08:04.746Z,0
2023-05-23T03:14:27.738Z,1
2023-05-23T03:20:47.774Z,1
2023-05-23T03:27:10.787Z,3
2023-05-23T03:49:23.316Z,17
2023-05-23T03:55:43.733Z,18
2023-05-23T04:02:06.721Z,22
2023-05-23T04:08:26.779Z,36
2023-05-23T04:14:49.729Z,59
2023-05-23T04:21:10.699Z,38
2023-05-23T04:27:33.450Z,54
2023-05-23T04:33:53.389Z,80
2023-05-23T04:40:16.331Z,88
2023-05-23T04:46:36.567Z,101
2023-05-23T04:52:59.350Z,131
2023-05-23T04:59:19.343Z,125
2023-05-23T05:05:42.549Z,148
2023-05-23T05:12:02.318Z,260
2023-05-23T05:18:25.325Z,198
2023-05-23T05:24:45.487Z,205
2023-05-23T05:31:08.364Z,252
2023-05-23T05:37:28.360Z,353
2023-05-23T05:43:51.385Z,480
2023-05-23T05:50:11.332Z,969
2023-05-23T05:56:34.405Z,1045
2023-05-23T06:02:54.547Z,1169
2023-05-23T06:09:17.416Z,998
2023-05-23T06:15:37.354Z,862
2023-05-23T06:22:00.505Z,576
2023-05-23T06:28:20.359Z,425
2023-05-23T06:34:43.344Z,477
2023-05-23T06:41:03.554Z,533
2023-05-23T06:47:26.405Z,532
2023-05-23T06:53:46.388Z,627
2023-05-23T07:00:09.501Z,573
2023-05-23T07:06:29.347Z,564
2023-05-23T07:12:52.424Z,575
2023-05-23T07:19:12.549Z,574
2023-05-23T07:25:35.406Z,712
2023-05-23T07:31:55.342Z,969
2023-05-23T07:38:18.404Z,1402
2023-05-23T07:44:38.387Z,1289
2023-05-23T07:51:01.443Z,874
2023-05-23T07:57:21.445Z,1050
2023-05-23T08:03:44.401Z,839
2023-05-23T08:10:04.322Z,985
2023-05-23T08:16:27.511Z,1593
2023-05-23T08:22:47.342Z,1207
2023-05-23T08:29:10.379Z,1766
2023-05-23T08:35:30.362Z,2694
2023-05-23T08:41:53.340Z,2313
2023-05-23T08:48:13.388Z,2471
2023-05-23T08:54:36.344Z,2035
2023-05-23T09:18:54.297Z,1918
2023-05-23T09:27:23.316Z,1461
2023-05-23T09:33:43.399Z,815
2023-05-23T09:40:06.414Z,980
2023-05-23T09:46:26.401Z,904
2023-05-23T09:52:49.357Z,950
2023-05-23T09:59:09.336Z,1180
2023-05-23T10:05:32.785Z,2051
2023-05-23T10:11:52.360Z,2088
2023-05-23T10:18:15.383Z,2309
2023-05-23T10:24:35.341Z,2519
2023-05-23T10:30:58.446Z,3584
2023-05-23T10:37:18.382Z,4108
2023-05-23T10:43:41.322Z,3733
2023-05-23T10:50:01.406Z,4395
2023-05-23T10:56:24.695Z,3623
2023-05-23T11:02:44.406Z,2776
2023-05-23T11:09:08.014Z,5431
2023-05-23T11:15:27.374Z,5253
2023-05-23T11:21:50.398Z,4978
2023-05-23T11:28:10.331Z,6667
2023-05-23T11:34:33.456Z,5102
2023-05-23T11:40:53.597Z,2655
2023-05-23T11:47:16.375Z,4809
2023-05-23T11:53:36.382Z,6784
2023-05-23T11:59:59.365Z,4091
2023-05-23T12:06:19.521Z,4159
2023-05-23T12:12:42.355Z,5555
2023-05-23T12:19:02.441Z,6307
2023-05-23T12:25:25.350Z,5245
2023-05-23T12:31:45.431Z,5660
2023-05-23T12:38:08.368Z,5485
2023-05-23T12:44:28.328Z,8346
2023-05-23T12:50:51.370Z,7241
2023-05-23T12:57:11.345Z,5688
2023-05-23T13:03:34.360Z,1722
2023-05-23T13:09:54.436Z,1069
2023-05-23T13:16:17.367Z,1783
2023-05-23T13:22:37.367Z,4383
2023-05-23T13:29:00.402Z,7432
2023-05-23T13:35:20.438Z,3989
2023-05-23T13:41:43.392Z,3245
2023-05-23T13:48:03.440Z,7759
2023-05-23T13:54:26.369Z,6791
2023-05-23T14:00:46.354Z,6186
2023-05-23T14:07:09.401Z,6261
2023-05-23T14:13:29.339Z,9564
2023-05-23T14:19:52.321Z,3257
2023-05-23T14:26:12.383Z,4474
2023-05-23T14:32:35.401Z,10412
2023-05-23T14:38:55.405Z,6747
2023-05-23T15:02:19.300Z,8177
2023-05-23T15:08:42.340Z,3543
2023-05-23T15:15:02.440Z,7506
2023-05-23T15:21:25.369Z,3090
2023-05-23T15:27:45.372Z,3232
2023-05-23T15:34:08.435Z,4645
2023-05-23T15:40:28.377Z,4928
2023-05-23T15:46:51.463Z,4502
2023-05-23T15:53:11.549Z,8624
2023-05-23T15:59:34.707Z,9907
2023-05-23T16:05:54.420Z,6844
2023-05-23T16:12:17.322Z,3486
2023-05-23T16:18:37.500Z,3661
2023-05-23T16:25:00.329Z,4106
2023-05-23T16:31:20.375Z,5727
2023-05-23T16:37:43.435Z,1945
2023-05-23T16:44:03.488Z,2272
2023-05-23T16:50:26.343Z,2950
2023-05-23T16:56:46.378Z,2491
2023-05-23T17:03:09.441Z,1376
2023-05-23T17:09:29.368Z,1915
2023-05-23T17:15:52.403Z,2275
2023-05-23T17:22:12.331Z,1938
2023-05-23T17:28:35.374Z,3951
2023-05-23T17:34:55.394Z,3652
2023-05-23T17:41:18.385Z,1869
2023-05-23T17:47:38.413Z,2111
2023-05-23T17:54:01.436Z,2128
2023-05-23T18:00:21.379Z,1933
2023-05-23T18:06:44.370Z,2056
2023-05-23T18:13:04.410Z,1923
2023-05-23T18:19:27.445Z,1562
2023-05-23T18:25:47.387Z,1354
2023-05-23T18:32:10.397Z,1161
2023-05-23T18:38:30.554Z,999
2023-05-23T18:44:53.452Z,818
2023-05-23T18:51:13.393Z,653
2023-05-23T18:57:36.477Z,509
2023-05-23T19:03:56.454Z,387
2023-05-23T19:10:19.451Z,269
2023-05-23T19:16:39.435Z,166
2023-05-23T19:23:02.319Z,101
2023-05-23T19:29:22.353Z,52
2023-05-23T19:35:45.390Z,27
2023-05-23T19:42:05.355Z,14
2023-05-23T19:48:28.433Z,6
2023-05-23T19:54:48.314Z,3
2023-05-23T20:18:59.319Z,0
2023-05-23T20:25:22.322Z,0
2023-05-23T20:31:42.387Z,0
2023-05-23T20:38:05.370Z,0
2023-05-23T20:44:25.322Z,0
2023-05-23T20:50:48.388Z,0
2023-05-23T20:57:08.352Z,0
2023-05-23T21:03:31.385Z,0
2023-05-23T21:09:51.362Z,0
2023-05-23T21:16:14.598Z,0
2023-05-23T21:22:34.677Z,0
2023-05-23T21:28:57.360Z,0
2023-05-23T21:35:17.362Z,0
2023-05-23T21:41:40.419Z,0
2023-05-23T21:48:00.446Z,0
2023-05-23T21:54:23.470Z,0
2023-05-23T22:00:43.657Z,0
2023-05-23T22:23:41.406Z,0
2023-05-23T22:30:01.332Z,0
2023-05-23T22:36:24.353Z,0
2023-05-23T22:42:44.372Z,0
2023-05-23T22:49:07.436Z,0
2023-05-23T22:55:27.358Z,0
2023-05-23T23:01:50.385Z,0
2023-05-23T23:08:10.354Z,0
2023-05-23T23:14:33.341Z,0
2023-05-23T23:20:53.497Z,0
2023-05-23T23:27:16.364Z,0
2023-05-23T23:33:36.410Z,0
2023-05-23T23:39:59.371Z,0
2023-05-23T23:46:19.396Z,0
2023-05-23T23:52:42.376Z,0
2023-05-23T23:59:02.448Z,0
